Time;durP1;ratioP1;P1;durP2;ratioP2;P2;SDS_P1;SDS_P2;PMS_P1;PMS_P2;Temp;Humidity;BMP_temperature;BMP_pressure;BME280_temperature;BME280_humidity;BME280_pressure;Samples;Min_cycle;Max_cycle;Signal;HPM_P1;HPM_P2
2022/03/26 00:02:18;;;;;;;26.27;12.80;;;10.70;61.60;;;;;;5074465;28;20057;-78
2022/03/26 00:04:44;;;;;;;25.43;12.40;;;10.70;61.60;;;;;;5074246;28;20024;-78
2022/03/26 00:07:09;;;;;;;28.97;13.37;;;10.70;61.60;;;;;;5056456;28;20062;-78
2022/03/26 00:09:35;;;;;;;27.90;12.90;;;10.60;61.90;;;;;;5074565;28;20044;-78
2022/03/26 00:12:02;;;;;;;27.80;13.93;;;10.60;62.00;;;;;;5074306;28;20031;-78
2022/03/26 00:14:27;;;;;;;29.83;14.20;;;10.60;62.50;;;;;;5056289;28;20028;-78
2022/03/26 00:16:53;;;;;;;25.37;13.23;;;10.60;62.40;;;;;;5073896;28;20487;-78
2022/03/26 00:19:19;;;;;;;23.40;13.53;;;10.60;62.70;;;;;;5074029;28;20024;-78
2022/03/26 00:21:47;;;;;;;23.10;12.17;;;10.50;62.90;;;;;;5039709;28;20025;-78
2022/03/26 00:24:14;;;;;;;25.23;12.67;;;10.50;63.70;;;;;;5073850;28;20411;-78
2022/03/26 00:26:39;;;;;;;24.40;12.53;;;10.50;63.10;;;;;;5056021;28;20020;-78
2022/03/26 00:29:05;;;;;;;29.00;13.73;;;10.50;63.00;;;;;;5055857;28;20380;-78
2022/03/26 00:31:33;;;;;;;24.43;12.73;;;10.40;63.50;;;;;;5039432;28;20028;-77
2022/03/26 00:33:59;;;;;;;23.67;13.50;;;10.40;63.60;;;;;;5073849;28;20481;-78
2022/03/26 00:36:24;;;;;;;24.63;12.70;;;10.50;63.80;;;;;;5073761;28;20038;-78
2022/03/26 00:38:50;;;;;;;25.73;13.53;;;10.40;63.90;;;;;;5039253;28;20040;-78
2022/03/26 00:41:16;;;;;;;26.57;12.63;;;10.40;63.60;;;;;;5055722;28;20035;-78
2022/03/26 00:43:41;;;;;;;25.33;12.47;;;10.40;64.50;;;;;;5055900;28;20024;-78
2022/03/26 00:46:07;;;;;;;22.47;11.73;;;10.40;63.80;;;;;;5055664;28;20028;-78
2022/03/26 00:48:33;;;;;;;25.53;13.10;;;10.30;63.50;;;;;;5073702;28;20508;-78
2022/03/26 00:50:58;;;;;;;24.40;12.27;;;10.30;63.70;;;;;;5073568;28;20036;-78
2022/03/26 00:53:24;;;;;;;30.30;14.07;;;10.30;63.60;;;;;;5073405;28;20027;-78
2022/03/26 00:55:49;;;;;;;25.47;13.13;;;10.30;63.70;;;;;;5073636;28;20354;-78
2022/03/26 00:58:15;;;;;;;24.63;13.40;;;10.30;63.70;;;;;;5055469;28;20037;-78
2022/03/26 01:00:42;;;;;;;28.00;13.30;;;10.20;63.70;;;;;;5073278;28;20031;-78
2022/03/26 01:03:09;;;;;;;24.73;12.53;;;10.20;63.80;;;;;;5038755;28;20032;-78
2022/03/26 01:05:36;;;;;;;26.40;11.43;;;10.20;63.70;;;;;;5055879;28;20486;-78
2022/03/26 01:08:02;;;;;;;26.87;13.17;;;10.20;63.80;;;;;;5073446;28;20477;-78
2022/03/26 01:10:28;;;;;;;26.40;13.30;;;10.10;64.10;;;;;;5073315;28;20025;-77
2022/03/26 01:12:54;;;;;;;24.83;12.67;;;10.10;64.20;;;;;;5073338;28;20039;-78
2022/03/26 01:15:22;;;;;;;25.47;13.33;;;10.10;64.50;;;;;;5073435;28;20052;-78
2022/03/26 01:17:49;;;;;;;24.10;12.57;;;10.10;64.60;;;;;;5073065;28;20025;-78
2022/03/26 01:20:16;;;;;;;26.33;14.20;;;10.00;64.50;;;;;;5073287;28;20021;-78
2022/03/26 01:22:42;;;;;;;26.23;13.10;;;10.00;64.30;;;;;;5039354;28;20021;-78
2022/03/26 01:25:08;;;;;;;28.97;12.90;;;9.90;64.50;;;;;;5073206;28;20100;-78
2022/03/26 01:27:33;;;;;;;32.57;14.17;;;9.90;64.40;;;;;;5073050;28;20040;-78
2022/03/26 01:29:59;;;;;;;24.83;13.10;;;9.90;64.40;;;;;;5055152;28;20029;-78
2022/03/26 01:32:25;;;;;;;23.53;12.37;;;9.80;64.20;;;;;;5073190;28;20028;-78
2022/03/26 01:34:50;;;;;;;28.80;12.43;;;9.80;64.30;;;;;;5055629;28;20086;-78
2022/03/26 01:37:16;;;;;;;25.17;13.03;;;9.90;65.20;;;;;;5072978;28;20024;-78
2022/03/26 01:39:43;;;;;;;26.73;13.60;;;9.80;65.30;;;;;;5051544;28;20053;-78
2022/03/26 01:42:09;;;;;;;24.50;13.77;;;9.70;65.10;;;;;;5053201;28;20429;-78
2022/03/26 01:44:37;;;;;;;31.57;14.80;;;9.70;65.20;;;;;;5051740;28;20036;-78
2022/03/26 01:47:03;;;;;;;30.63;14.63;;;9.70;65.70;;;;;;5051626;28;20128;-78
2022/03/26 01:49:30;;;;;;;25.27;13.07;;;9.60;65.60;;;;;;5051730;28;20029;-78
2022/03/26 01:51:56;;;;;;;27.97;14.37;;;9.60;65.70;;;;;;5051586;28;20029;-78
2022/03/26 01:54:22;;;;;;;30.30;14.53;;;9.60;65.70;;;;;;5056264;28;20043;-78
2022/03/26 01:56:48;;;;;;;29.20;13.33;;;9.50;65.70;;;;;;5055499;28;20112;-78
2022/03/26 01:59:14;;;;;;;25.60;13.80;;;9.50;65.60;;;;;;5056707;28;20086;-77
2022/03/26 02:01:40;;;;;;;28.60;13.77;;;9.50;65.80;;;;;;5038856;28;20017;-78
2022/03/26 02:04:08;;;;;;;27.10;14.07;;;9.50;65.60;;;;;;5056698;28;20512;-77
2022/03/26 02:06:34;;;;;;;28.93;13.93;;;9.50;65.60;;;;;;5055510;28;20074;-78
2022/03/26 02:09:02;;;;;;;28.47;12.97;;;9.30;65.60;;;;;;5056612;28;20021;-78
2022/03/26 02:11:36;;;;;;;26.67;13.30;;;9.40;66.40;;;;;;5057031;28;20040;-78
2022/03/26 02:14:03;;;;;;;;;;;9.40;65.80;;;;;;5056830;28;20029;-78
2022/03/26 02:16:30;;;;;;;28.83;13.07;;;9.40;66.00;;;;;;5056384;28;19923;-77
2022/03/26 02:18:56;;;;;;;28.17;14.00;;;9.30;65.90;;;;;;5054870;28;20013;-78
2022/03/26 02:21:23;;;;;;;27.33;13.73;;;9.30;65.90;;;;;;5056409;28;20066;-78
2022/03/26 02:23:50;;;;;;;29.30;14.90;;;9.20;65.80;;;;;;5055088;28;20029;-78
2022/03/26 02:26:18;;;;;;;29.60;14.00;;;9.20;65.80;;;;;;5056299;28;20413;-78
2022/03/26 02:28:44;;;;;;;28.23;13.97;;;9.20;65.80;;;;;;5056147;28;20385;-78
2022/03/26 02:31:14;;;;;;;29.23;14.67;;;9.10;65.70;;;;;;5056109;28;20485;-78
2022/03/26 02:33:41;;;;;;;29.17;15.37;;;9.00;65.90;;;;;;5056174;28;20025;-78
2022/03/26 02:36:07;;;;;;;27.93;14.73;;;9.00;65.90;;;;;;5056017;28;20115;-78
2022/03/26 02:38:33;;;;;;;30.90;15.47;;;8.90;66.00;;;;;;5054715;28;20013;-77
2022/03/26 02:40:59;;;;;;;30.43;14.23;;;8.90;66.10;;;;;;5054544;28;20103;-78
2022/03/26 02:43:25;;;;;;;30.93;14.67;;;8.90;66.30;;;;;;5055834;28;20029;-78
2022/03/26 02:45:51;;;;;;;26.17;13.47;;;8.80;66.30;;;;;;5054535;28;20020;-78
2022/03/26 02:48:16;;;;;;;29.70;15.77;;;8.70;66.40;;;;;;5054424;28;20496;-78
2022/03/26 02:50:44;;;;;;;27.93;14.40;;;8.80;66.60;;;;;;5055676;28;20025;-78
2022/03/26 02:53:10;;;;;;;28.70;15.07;;;8.70;66.60;;;;;;5054411;28;20104;-78
2022/03/26 02:55:37;;;;;;;31.43;15.53;;;8.70;66.70;;;;;;5054543;28;20032;-78
2022/03/26 02:58:04;;;;;;;26.83;14.90;;;8.70;66.80;;;;;;5055658;28;20031;-78
2022/03/26 03:00:30;;;;;;;40.23;15.93;;;8.60;66.90;;;;;;5055761;28;20021;-78
2022/03/26 03:02:56;;;;;;;31.77;15.53;;;8.70;67.00;;;;;;5055571;28;20074;-78
2022/03/26 03:05:22;;;;;;;26.93;14.30;;;8.60;67.10;;;;;;5054302;28;20052;-78
2022/03/26 03:07:48;;;;;;;27.83;14.83;;;8.60;67.10;;;;;;5055522;28;20072;-78
2022/03/26 03:10:16;;;;;;;30.97;16.30;;;8.50;67.20;;;;;;5055469;28;20029;-78
2022/03/26 03:12:44;;;;;;;28.77;15.43;;;8.50;67.90;;;;;;5055656;28;20021;-78
2022/03/26 03:15:10;;;;;;;30.30;15.57;;;8.50;67.30;;;;;;5054242;28;20478;-78
2022/03/26 03:17:40;;;;;;;35.10;16.80;;;8.40;67.30;;;;;;5054029;28;20039;-79
2022/03/26 03:20:08;;;;;;;30.00;15.40;;;8.40;67.40;;;;;;5055453;28;20476;-78
2022/03/26 03:22:35;;;;;;;31.13;15.93;;;8.40;67.50;;;;;;5055049;28;20115;-78
2022/03/26 03:25:01;;;;;;;31.87;16.60;;;8.30;67.60;;;;;;5055071;28;20429;-78
2022/03/26 03:27:26;;;;;;;33.40;16.87;;;8.30;67.70;;;;;;5055158;28;20108;-78
2022/03/26 03:29:52;;;;;;;33.13;16.47;;;8.30;67.70;;;;;;5055591;28;20033;-78
2022/03/26 03:32:18;;;;;;;27.57;15.47;;;8.20;67.80;;;;;;5053868;28;20035;-78
2022/03/26 03:34:44;;;;;;;30.43;16.70;;;8.30;67.90;;;;;;5053641;28;20400;-78
2022/03/26 03:37:10;;;;;;;33.30;16.30;;;8.20;67.90;;;;;;5054733;28;20090;-78
2022/03/26 03:39:35;;;;;;;30.67;16.60;;;8.20;67.90;;;;;;5053424;28;20065;-79
2022/03/26 03:42:02;;;;;;;36.30;17.40;;;8.20;67.90;;;;;;5054761;28;20385;-78
2022/03/26 03:44:27;;;;;;;33.33;16.63;;;8.10;67.90;;;;;;5054677;28;20088;-78
2022/03/26 03:46:53;;;;;;;30.23;15.60;;;8.20;68.00;;;;;;5054554;28;20516;-78
2022/03/26 03:49:19;;;;;;;31.70;15.90;;;8.20;68.00;;;;;;5054584;28;20024;-79
2022/03/26 03:51:45;;;;;;;29.87;16.33;;;8.10;67.90;;;;;;5054687;28;20484;-78
2022/03/26 03:54:11;;;;;;;34.90;18.03;;;8.10;68.00;;;;;;5053645;28;20025;-73
2022/03/26 03:56:38;;;;;;;34.80;18.47;;;8.10;68.40;;;;;;5054501;28;20064;-72
2022/03/26 03:59:03;;;;;;;39.13;17.83;;;8.10;68.90;;;;;;5054402;28;20469;-73
2022/03/26 04:01:29;;;;;;;31.10;16.73;;;8.10;69.40;;;;;;5054934;28;20035;-73
2022/03/26 04:03:55;;;;;;;37.03;18.43;;;8.00;69.80;;;;;;5053483;28;20029;-72
2022/03/26 04:06:21;;;;;;;36.87;18.20;;;8.10;70.40;;;;;;5053415;28;20362;-73
2022/03/26 04:08:46;;;;;;;33.07;17.77;;;8.10;70.80;;;;;;5053371;28;20035;-72
2022/03/26 04:11:12;;;;;;;31.00;16.67;;;8.00;70.90;;;;;;5053276;28;20499;-73
2022/03/26 04:13:38;;;;;;;36.87;17.80;;;8.00;71.10;;;;;;5053073;28;20086;-73
2022/03/26 04:16:04;;;;;;;33.43;16.40;;;7.90;71.20;;;;;;5052205;28;20028;-72
2022/03/26 04:18:30;;;;;;;35.00;18.37;;;7.90;71.40;;;;;;5052660;28;20021;-72
2022/03/26 04:20:56;;;;;;;34.57;17.00;;;8.00;71.70;;;;;;5058038;28;20079;-73
2022/03/26 04:23:22;;;;;;;36.43;17.83;;;7.90;71.80;;;;;;5052750;28;20025;-73
2022/03/26 04:25:48;;;;;;;34.23;18.03;;;7.80;71.90;;;;;;5053425;28;20079;-73
2022/03/26 04:28:14;;;;;;;34.07;17.30;;;7.80;72.70;;;;;;5053230;28;20033;-73
2022/03/26 04:30:40;;;;;;;33.60;18.63;;;7.80;72.10;;;;;;5053921;28;20800;-73
2022/03/26 04:33:06;;;;;;;37.23;17.70;;;7.70;72.20;;;;;;5036409;28;20482;-73
2022/03/26 04:35:31;;;;;;;37.23;19.43;;;7.70;72.50;;;;;;5053484;28;20021;-73
2022/03/26 04:37:57;;;;;;;35.43;17.77;;;7.70;72.70;;;;;;5035810;28;20029;-73
2022/03/26 04:40:24;;;;;;;34.57;17.17;;;7.60;72.70;;;;;;5035812;28;20495;-73
2022/03/26 04:42:50;;;;;;;35.23;17.67;;;7.60;72.90;;;;;;5052514;28;20068;-72
2022/03/26 04:45:16;;;;;;;39.27;18.67;;;7.50;73.00;;;;;;5053963;28;20064;-73
2022/03/26 04:47:42;;;;;;;35.47;18.17;;;7.50;73.10;;;;;;5054142;28;20047;-73
2022/03/26 04:50:09;;;;;;;37.80;18.97;;;7.50;73.40;;;;;;5053967;28;20025;-73
2022/03/26 04:52:35;;;;;;;36.00;18.50;;;7.50;73.50;;;;;;5054149;28;20044;-73
2022/03/26 04:55:02;;;;;;;37.40;19.17;;;7.50;73.60;;;;;;5054124;28;20564;-73
2022/03/26 04:57:27;;;;;;;35.10;17.77;;;7.50;73.80;;;;;;5053619;28;20412;-73
2022/03/26 04:59:53;;;;;;;31.90;18.70;;;7.40;74.20;;;;;;5035935;28;20032;-73
2022/03/26 05:02:19;;;;;;;33.90;17.70;;;7.30;74.90;;;;;;5052400;28;20037;-73
2022/03/26 05:04:44;;;;;;;34.03;16.73;;;7.40;74.90;;;;;;5052358;28;20039;-73
2022/03/26 05:09:54;;;;;;;30.27;17.52;;;7.30;74.90;;;;;;5053010;28;20586;-73
2022/03/26 05:12:19;;;;;;;36.20;18.40;;;7.30;75.10;;;;;;5052046;28;20040;-73
2022/03/26 05:14:45;;;;;;;42.30;18.60;;;7.20;75.00;;;;;;5053610;28;20136;-73
2022/03/26 05:17:11;;;;;;;33.57;17.17;;;7.30;75.30;;;;;;5052077;28;20029;-72
2022/03/26 05:19:37;;;;;;;33.63;17.50;;;7.10;75.30;;;;;;5053463;28;20035;-72
2022/03/26 05:22:04;;;;;;;38.40;18.33;;;7.10;75.40;;;;;;5053228;28;20440;-73
2022/03/26 05:24:30;;;;;;;36.97;18.87;;;7.10;75.50;;;;;;5053469;28;20488;-73
2022/03/26 05:26:56;;;;;;;34.37;18.30;;;7.00;75.60;;;;;;5053322;28;20075;-73
2022/03/26 05:29:21;;;;;;;37.17;18.67;;;7.00;75.90;;;;;;5056764;28;20060;-73
2022/03/26 05:31:47;;;;;;;38.17;19.27;;;7.00;76.00;;;;;;5023211;28;20124;-73
2022/03/26 05:34:13;;;;;;;34.37;18.53;;;6.90;76.00;;;;;;5039422;28;20036;-73
2022/03/26 05:36:39;;;;;;;38.83;18.57;;;6.90;76.20;;;;;;5057331;28;20033;-73
2022/03/26 05:39:05;;;;;;;37.87;18.63;;;6.90;76.40;;;;;;5058823;28;20029;-73
2022/03/26 05:41:32;;;;;;;36.17;18.13;;;6.90;76.60;;;;;;5059466;28;20032;-73
2022/03/26 05:43:59;;;;;;;34.77;18.27;;;6.90;76.70;;;;;;5059291;28;20017;-73
2022/03/26 05:46:25;;;;;;;36.90;18.17;;;6.90;76.70;;;;;;5059309;28;20154;-73
2022/03/26 05:48:51;;;;;;;36.07;19.10;;;6.90;76.80;;;;;;5059053;28;20033;-73
2022/03/26 05:51:16;;;;;;;38.20;20.60;;;7.00;76.80;;;;;;5058872;28;20028;-72
2022/03/26 05:53:42;;;;;;;44.13;21.07;;;6.90;76.80;;;;;;5059236;28;20070;-77
2022/03/26 05:56:08;;;;;;;38.30;20.90;;;6.90;77.00;;;;;;5042358;28;20115;-72
2022/03/26 05:58:34;;;;;;;37.50;19.97;;;6.90;77.30;;;;;;5058977;28;20519;-74
2022/03/26 06:01:00;;;;;;;33.50;18.57;;;6.90;77.50;;;;;;5058884;28;20031;-73
2022/03/26 06:03:26;;;;;;;32.40;18.40;;;6.90;78.20;;;;;;5059029;28;20112;-72
2022/03/26 06:05:51;;;;;;;34.03;18.57;;;6.90;77.80;;;;;;5059025;28;20384;-72
2022/03/26 06:08:17;;;;;;;36.73;18.50;;;6.90;77.90;;;;;;5058667;28;20455;-73
2022/03/26 06:10:43;;;;;;;36.87;18.57;;;6.90;78.20;;;;;;5076790;28;20488;-73
2022/03/26 06:13:09;;;;;;;42.90;21.07;;;6.90;78.30;;;;;;5058804;28;20504;-73
2022/03/26 06:15:34;;;;;;;35.97;19.43;;;6.90;78.50;;;;;;5058896;28;20032;-73
2022/03/26 06:18:01;;;;;;;37.20;19.87;;;7.00;78.70;;;;;;5058546;28;20039;-73
2022/03/26 06:20:27;;;;;;;37.03;21.23;;;7.00;78.80;;;;;;5058765;28;20025;-77
2022/03/26 06:22:53;;;;;;;36.77;20.33;;;7.00;78.80;;;;;;5058363;28;20484;-77
2022/03/26 06:25:20;;;;;;;37.83;20.17;;;7.00;78.90;;;;;;5058685;28;20033;-77
2022/03/26 06:27:49;;;;;;;43.50;21.40;;;7.00;78.90;;;;;;5076259;28;20081;-77
2022/03/26 06:30:16;;;;;;;46.40;23.07;;;7.00;78.80;;;;;;5058482;28;20032;-77
2022/03/26 06:32:42;;;;;;;49.97;23.63;;;7.10;78.70;;;;;;5058308;28;20163;-78
2022/03/26 06:35:08;;;;;;;46.93;24.70;;;7.10;78.70;;;;;;5057995;28;20037;-77
2022/03/26 06:37:34;;;;;;;52.10;25.77;;;7.10;78.60;;;;;;5057943;28;20119;-77
2022/03/26 06:40:00;;;;;;;52.37;25.97;;;7.10;78.60;;;;;;5040829;28;20072;-77
2022/03/26 06:42:26;;;;;;;47.73;25.03;;;7.10;78.60;;;;;;5075957;28;20384;-77
2022/03/26 06:44:58;;;;;;;51.10;26.23;;;7.10;78.60;;;;;;5075964;28;20037;-77
2022/03/26 06:47:27;;;;;;;51.37;26.93;;;7.10;79.20;;;;;;5054522;28;20038;-78
2022/03/26 06:49:54;;;;;;;53.80;26.83;;;7.20;78.70;;;;;;5095425;28;20032;-78
2022/03/26 06:52:22;;;;;;;45.20;24.83;;;7.20;78.70;;;;;;5095728;28;20036;-78
2022/03/26 06:54:48;;;;;;;50.90;25.93;;;7.20;78.70;;;;;;5090386;28;20045;-78
2022/03/26 06:57:13;;;;;;;48.50;26.37;;;7.30;78.80;;;;;;5075409;28;20390;-78
2022/03/26 06:59:39;;;;;;;48.13;25.83;;;7.40;78.90;;;;;;5085545;28;20036;-78
2022/03/26 07:02:05;;;;;;;44.37;23.43;;;7.40;78.90;;;;;;5095809;28;20103;-78
2022/03/26 07:04:30;;;;;;;47.87;26.20;;;7.40;78.80;;;;;;5060930;28;20122;-78
2022/03/26 07:06:56;;;;;;;53.83;26.03;;;7.40;78.80;;;;;;5061087;28;20036;-78
2022/03/26 07:09:23;;;;;;;52.10;26.90;;;7.50;78.80;;;;;;5061062;28;20032;-78
2022/03/26 07:11:50;;;;;;;48.00;26.27;;;7.50;78.70;;;;;;5080814;28;20044;-78
2022/03/26 07:14:15;;;;;;;49.23;27.87;;;7.60;78.80;;;;;;5075187;28;20028;-78
2022/03/26 07:16:41;;;;;;;52.77;28.07;;;7.70;78.90;;;;;;5053261;28;20527;-78
2022/03/26 07:19:07;;;;;;;50.30;25.83;;;7.70;78.90;;;;;;5057493;28;20032;-78
2022/03/26 07:21:32;;;;;;;50.13;27.17;;;7.80;78.90;;;;;;5075151;28;20114;-78
2022/03/26 07:23:58;;;;;;;51.07;27.37;;;7.80;78.80;;;;;;5041055;28;20016;-78
2022/03/26 07:26:23;;;;;;;53.97;26.87;;;7.90;78.80;;;;;;5044727;28;20028;-78
2022/03/26 07:28:50;;;;;;;45.17;26.07;;;8.00;78.80;;;;;;5080130;28;20692;-78
2022/03/26 07:31:16;;;;;;;47.60;27.03;;;8.00;78.70;;;;;;5085270;28;20028;-78
2022/03/26 07:33:41;;;;;;;51.70;27.90;;;8.10;78.60;;;;;;5077622;28;20574;-78
2022/03/26 07:36:07;;;;;;;46.30;25.73;;;8.10;78.50;;;;;;5090288;28;20032;-78
2022/03/26 07:38:33;;;;;;;47.10;26.40;;;8.20;78.50;;;;;;5091476;28;20422;-78
2022/03/26 07:40:58;;;;;;;46.33;24.17;;;8.30;78.40;;;;;;5095040;28;20577;-78
2022/03/26 07:43:24;;;;;;;44.80;25.80;;;8.40;78.30;;;;;;5095032;28;20074;-78
2022/03/26 07:45:50;;;;;;;49.17;24.97;;;8.50;78.30;;;;;;5094996;28;20074;-78
2022/03/26 07:48:15;;;;;;;49.97;26.63;;;8.50;78.20;;;;;;5076959;28;20521;-78
2022/03/26 07:50:41;;;;;;;49.67;27.40;;;8.60;78.20;;;;;;5094375;28;20391;-78
2022/03/26 07:53:06;;;;;;;53.63;27.10;;;8.70;78.00;;;;;;5064928;28;20039;-79
2022/03/26 07:55:32;;;;;;;44.83;25.53;;;8.80;78.00;;;;;;5039972;28;20059;-78
2022/03/26 07:57:58;;;;;;;50.83;26.30;;;8.90;78.00;;;;;;5076523;28;20028;-79
2022/03/26 08:00:24;;;;;;;47.27;26.30;;;9.00;78.10;;;;;;5094861;28;20111;-79
2022/03/26 08:02:49;;;;;;;49.83;26.27;;;9.10;78.10;;;;;;5094804;28;20036;-79
2022/03/26 08:05:15;;;;;;;46.80;25.20;;;9.20;78.20;;;;;;5079505;28;20029;-78
2022/03/26 08:07:41;;;;;;;45.00;25.07;;;9.30;78.10;;;;;;5039868;28;20089;-78
2022/03/26 08:10:07;;;;;;;52.80;26.13;;;9.40;78.00;;;;;;5071010;28;20446;-79
2022/03/26 08:12:32;;;;;;;48.73;26.30;;;9.50;78.00;;;;;;5094422;28;20481;-79
2022/03/26 08:14:59;;;;;;;42.50;24.47;;;9.60;77.90;;;;;;5094004;28;20089;-73
2022/03/26 08:17:28;;;;;;;46.00;24.23;;;9.70;77.90;;;;;;5061964;28;20083;-73
2022/03/26 08:19:53;;;;;;;49.73;25.27;;;9.80;77.80;;;;;;5065201;28;20103;-73
2022/03/26 08:22:19;;;;;;;47.03;25.37;;;9.90;77.50;;;;;;5062314;28;20033;-73
2022/03/26 08:24:44;;;;;;;44.20;25.10;;;10.10;77.20;;;;;;5039664;28;20036;-74
2022/03/26 08:27:10;;;;;;;45.63;26.63;;;10.30;77.00;;;;;;5056373;28;20036;-73
2022/03/26 08:29:36;;;;;;;46.30;24.67;;;10.30;76.70;;;;;;5056353;28;20028;-73
2022/03/26 08:32:04;;;;;;;46.23;23.70;;;10.40;76.40;;;;;;5056114;28;20122;-73
2022/03/26 08:34:30;;;;;;;43.63;24.67;;;10.50;76.20;;;;;;5068109;28;20044;-78
2022/03/26 08:36:55;;;;;;;49.73;26.10;;;10.70;76.00;;;;;;5091868;28;20544;-79
2022/03/26 08:39:22;;;;;;;46.72;24.27;;;10.70;75.60;;;;;;5075478;28;20048;-78
2022/03/26 08:41:48;;;;;;;41.45;24.20;;;10.90;75.30;;;;;;5093662;28;20032;-79
2022/03/26 08:44:14;;;;;;;43.50;23.83;;;11.00;75.00;;;;;;5093412;28;20528;-79
2022/03/26 08:46:39;;;;;;;45.85;24.38;;;11.10;74.70;;;;;;5073579;28;20516;-79
2022/03/26 08:49:05;;;;;;;44.03;24.23;;;11.30;74.50;;;;;;5073823;28;20025;-73
2022/03/26 08:51:31;;;;;;;41.72;21.95;;;11.40;74.10;;;;;;5056266;28;20024;-73
2022/03/26 08:53:56;;;;;;;38.42;21.70;;;11.50;73.90;;;;;;5085144;28;20033;-74
2022/03/26 08:56:22;;;;;;;42.75;21.83;;;11.60;73.60;;;;;;5058994;28;20043;-72
2022/03/26 08:58:48;;;;;;;35.10;20.48;;;11.90;73.50;;;;;;5055467;28;20111;-72
2022/03/26 09:01:14;;;;;;;36.80;19.65;;;11.90;73.10;;;;;;5039006;28;20666;-72
2022/03/26 09:03:40;;;;;;;41.45;21.05;;;12.10;72.80;;;;;;5092950;28;20021;-74
2022/03/26 09:06:07;;;;;;;34.85;20.85;;;12.20;72.40;;;;;;5093435;28;20053;-72
2022/03/26 09:08:36;;;;;;;35.80;20.10;;;12.30;72.00;;;;;;5093450;28;20016;-78
2022/03/26 09:11:04;;;;;;;32.05;19.02;;;12.60;71.80;;;;;;5075324;28;20025;-78
2022/03/26 09:13:30;;;;;;;33.90;19.30;;;12.60;71.40;;;;;;5093863;28;20024;-78
2022/03/26 09:15:55;;;;;;;35.88;20.00;;;12.70;71.10;;;;;;5093341;28;20028;-78
2022/03/26 09:18:22;;;;;;;31.58;17.13;;;12.90;70.90;;;;;;5093069;28;20028;-78
2022/03/26 09:20:48;;;;;;;33.33;18.58;;;13.00;70.60;;;;;;5075839;28;20062;-73
2022/03/26 09:23:14;;;;;;;34.22;18.33;;;13.20;70.20;;;;;;5075747;28;20024;-78
2022/03/26 09:25:41;;;;;;;30.58;17.80;;;13.20;70.00;;;;;;5093425;28;20108;-78
2022/03/26 09:28:08;;;;;;;30.60;15.73;;;13.40;69.90;;;;;;5093325;28;20082;-77
2022/03/26 09:30:33;;;;;;;24.67;16.10;;;13.60;69.60;;;;;;5093574;28;20088;-77
2022/03/26 09:32:59;;;;;;;25.33;14.85;;;13.70;69.10;;;;;;5075472;28;20464;-72
2022/03/26 09:35:25;;;;;;;26.65;15.48;;;13.90;68.50;;;;;;5093569;28;20028;-78
2022/03/26 09:37:51;;;;;;;25.45;13.70;;;14.00;68.00;;;;;;5093135;28;20024;-72
2022/03/26 09:40:19;;;;;;;25.45;12.88;;;14.10;67.60;;;;;;5091728;28;20060;-72
2022/03/26 09:42:45;;;;;;;22.90;12.38;;;14.20;67.10;;;;;;5076529;28;20086;-73
2022/03/26 09:45:11;;;;;;;20.83;11.10;;;14.30;66.80;;;;;;5072700;28;20032;-72
2022/03/26 09:47:37;;;;;;;20.17;11.38;;;14.40;66.70;;;;;;5077753;28;20488;-72
2022/03/26 09:50:06;;;;;;;19.65;10.80;;;14.50;66.50;;;;;;5059279;28;20036;-72
2022/03/26 09:52:34;;;;;;;20.23;10.40;;;14.60;66.40;;;;;;5055734;28;20043;-78
2022/03/26 09:54:59;;;;;;;19.42;9.77;;;14.70;66.10;;;;;;5063499;28;20032;-78
2022/03/26 09:57:25;;;;;;;20.95;10.38;;;14.80;66.60;;;;;;5093505;28;20032;-79
2022/03/26 09:59:51;;;;;;;19.65;10.85;;;14.90;65.70;;;;;;5075049;28;20039;-78
2022/03/26 10:02:16;;;;;;;17.33;9.52;;;15.00;65.40;;;;;;5074699;28;20035;-78
2022/03/26 10:04:43;;;;;;;16.60;9.68;;;15.10;65.30;;;;;;5073031;28;20052;-79
2022/03/26 10:07:09;;;;;;;17.98;10.60;;;15.30;65.20;;;;;;5054768;28;20024;-80
2022/03/26 10:09:38;;;;;;;21.98;10.02;;;15.50;64.70;;;;;;5054724;28;20029;-80
2022/03/26 10:12:18;;;;;;;17.55;10.35;;;15.70;64.30;;;;;;5073031;28;20028;-81
2022/03/26 10:14:48;;;;;;;16.00;9.20;;;16.10;63.70;;;;;;5056737;28;20032;-81
2022/03/26 10:17:22;;;;;;;16.30;8.50;;;16.50;63.60;;;;;;5072708;28;20028;-81
2022/03/26 10:19:51;;;;;;;13.55;6.78;;;17.00;63.40;;;;;;5078875;28;20052;-81
2022/03/26 10:22:28;;;;;;;16.35;7.80;;;17.70;63.30;;;;;;5096967;28;20077;-80
2022/03/26 10:24:56;;;;;;;11.38;5.78;;;18.40;62.60;;;;;;5096106;28;20028;-81
2022/03/26 10:27:22;;;;;;;10.85;5.60;;;19.10;62.30;;;;;;5086372;28;20091;-81
2022/03/26 10:29:56;;;;;;;9.65;5.45;;;20.00;61.70;;;;;;5076164;28;20059;-81
2022/03/26 10:35:19;;;;;;;10.00;5.80;;;21.80;59.00;;;;;;5076130;28;20036;-81
2022/03/26 10:37:53;;;;;;;8.95;5.43;;;22.80;57.00;;;;;;5077202;28;20031;-82
2022/03/26 10:40:33;;;;;;;8.90;4.45;;;23.60;55.60;;;;;;5062608;28;20496;-82
2022/03/26 10:43:07;;;;;;;8.93;5.18;;;24.40;52.50;;;;;;5077969;28;20079;-82
2022/03/26 10:45:37;;;;;;;9.77;5.38;;;24.80;52.00;;;;;;5096284;28;20017;-75
2022/03/26 10:48:07;;;;;;;9.75;5.05;;;24.90;50.20;;;;;;5096496;28;20028;-75
2022/03/26 10:50:34;;;;;;;8.68;4.68;;;24.80;48.90;;;;;;5078138;28;20063;-75
2022/03/26 10:53:06;;;;;;;8.95;3.85;;;24.60;48.30;;;;;;5096178;28;20050;-75
2022/03/26 10:55:33;;;;;;;8.50;3.78;;;24.30;48.20;;;;;;5077873;28;20101;-75
2022/03/26 10:58:02;;;;;;;8.00;3.55;;;24.00;47.30;;;;;;5077828;28;20052;-75
2022/03/26 11:00:28;;;;;;;8.43;3.65;;;23.80;46.80;;;;;;5077978;28;20095;-84
2022/03/26 11:02:54;;;;;;;6.88;4.10;;;23.70;46.30;;;;;;5063645;28;20530;-83
2022/03/26 11:05:20;;;;;;;8.70;4.15;;;23.40;45.60;;;;;;5077829;28;20032;-82
2022/03/26 11:07:47;;;;;;;10.13;4.00;;;23.30;45.70;;;;;;5078127;28;20024;-85
2022/03/26 11:10:13;;;;;;;11.43;4.15;;;23.30;46.00;;;;;;5081483;28;20040;-83
2022/03/26 11:12:47;;;;;;;6.43;3.50;;;23.20;45.50;;;;;;5078005;28;20043;-82
2022/03/26 11:15:27;;;;;;;6.68;3.10;;;23.20;45.40;;;;;;5096200;28;20072;-83
2022/03/26 11:18:11;;;;;;;7.35;2.95;;;23.20;45.40;;;;;;5096649;28;20357;-84
2022/03/26 11:20:47;;;;;;;10.48;3.53;;;23.30;45.30;;;;;;5077579;28;20035;-75
2022/03/26 11:23:57;;;;;;;7.90;3.10;;;23.50;44.00;;;;;;5076392;28;20074;-75
2022/03/26 11:26:26;;;;;;;6.93;2.90;;;23.70;43.00;;;;;;5040032;28;20039;-75
2022/03/26 11:28:59;;;;;;;9.07;3.47;;;23.80;42.80;;;;;;5057517;28;20020;-74
2022/03/26 11:31:41;;;;;;;8.60;3.20;;;24.00;42.30;;;;;;5057282;28;20552;-75
2022/03/26 11:34:09;;;;;;;7.13;3.13;;;24.20;41.80;;;;;;5057522;28;20017;-81
2022/03/26 11:36:35;;;;;;;10.40;3.35;;;24.30;42.10;;;;;;5057480;28;20060;-81
2022/03/26 11:39:15;;;;;;;11.10;4.32;;;24.30;42.50;;;;;;5056725;28;20473;-80
2022/03/26 11:41:42;;;;;;;9.60;4.38;;;24.20;42.20;;;;;;5056814;28;20048;-75
2022/03/26 11:44:09;;;;;;;11.43;5.85;;;24.30;42.10;;;;;;5057311;28;20125;-75
2022/03/26 11:52:27;;;;;;;11.45;5.55;;;24.50;41.30;;;;;;5075407;28;20028;-83
2022/03/26 11:54:56;;;;;;;10.18;5.32;;;24.50;41.10;;;;;;5056505;28;20024;-83
2022/03/26 11:57:24;;;;;;;9.85;5.43;;;24.40;40.80;;;;;;5074310;28;20032;-84
2022/03/26 11:59:52;;;;;;;11.40;5.82;;;24.60;40.70;;;;;;5056804;28;20372;-83
2022/03/26 12:02:25;;;;;;;8.55;5.05;;;24.70;40.60;;;;;;5023728;28;20017;-83
2022/03/26 12:04:55;;;;;;;8.75;3.85;;;24.90;40.40;;;;;;5056411;28;20035;-83
2022/03/26 12:07:23;;;;;;;8.75;4.45;;;25.10;40.30;;;;;;5056468;28;20028;-83
2022/03/26 12:10:09;;;;;;;7.00;3.45;;;25.30;40.20;;;;;;5074360;28;20024;-83
2022/03/26 12:12:51;;;;;;;8.23;3.92;;;25.60;39.90;;;;;;5074329;28;20029;-76
2022/03/26 12:15:17;;;;;;;9.82;4.05;;;25.80;39.70;;;;;;5074312;28;20024;-76
2022/03/26 12:17:47;;;;;;;7.85;3.83;;;26.00;39.70;;;;;;5056262;28;20040;-83
2022/03/26 12:20:32;;;;;;;6.55;3.33;;;26.20;39.20;;;;;;5074539;28;20112;-84
2022/03/26 12:23:06;;;;;;;11.50;4.30;;;26.20;38.50;;;;;;5074357;28;20024;-85
2022/03/26 12:25:50;;;;;;;6.75;3.05;;;26.30;38.30;;;;;;5057513;28;20043;-76
2022/03/26 12:28:37;;;;;;;8.93;3.33;;;26.40;38.10;;;;;;5056486;28;20540;-85
2022/03/26 12:31:05;;;;;;;6.10;3.70;;;26.50;37.60;;;;;;5074207;28;20024;-86
2022/03/26 12:33:54;;;;;;;7.22;4.03;;;26.60;37.80;;;;;;5074452;28;20020;-86
2022/03/26 12:36:21;;;;;;;7.15;4.38;;;26.80;37.30;;;;;;5074459;28;20059;-75
2022/03/26 12:38:57;;;;;;;8.10;3.97;;;27.10;37.30;;;;;;5055912;28;20399;-76
2022/03/26 12:41:23;;;;;;;6.43;3.97;;;27.40;36.50;;;;;;5056176;28;20061;-76
2022/03/26 12:44:02;;;;;;;8.48;4.28;;;27.60;37.00;;;;;;5055708;28;20024;-76
2022/03/26 12:46:35;;;;;;;6.97;4.35;;;27.90;35.50;;;;;;5039426;28;20491;-75
2022/03/26 12:49:19;;;;;;;6.85;3.83;;;28.20;35.20;;;;;;5072538;28;20025;-76